Flight Track Log - Related Links

Times and Time Zones

All times are in EDT time to prevent confusion due to time zone crossing. See the ASQ4204 flight status page for this flight to view local times or setup timezone preferences in your user account.

Time Position Orientation Groundspeed Altitude Reporting Facility
EDT Latitude Longitude Course Direction KTS MPH feet Rate Location/Type
Tue 08:16:32 PM 31.0191 -82.0836 18° North  Level FlightAware Approximate
Tue 08:17:32 PM 31.1335 -82.0790 19° North  Level FlightAware Approximate
Tue 08:18:32 PM 31.1573 -82.2073 23° Northeast  Level FlightAware Approximate
Tue 08:19:32 PM 31.2495 -82.2862 26° Northeast  Level FlightAware Approximate
Tue 08:20:32 PM 31.3636 -82.2756 27° Northeast  Level FlightAware Approximate
Tue 08:21:32 PM 31.4777 -82.2648 29° Northeast  Level FlightAware Approximate
Tue 08:22:32 PM 31.5918 -82.2541 31° Northeast  Level FlightAware Approximate
Tue 08:23:32 PM 31.7059 -82.2433 33° Northeast  Level FlightAware Approximate
Tue 08:24:32 PM 31.8200 -82.2325 36° Northeast  Level FlightAware Approximate
Tue 08:25:32 PM 31.9341 -82.2217 39° Northeast  Level FlightAware Approximate
Tue 08:26:32 PM 32.0447 -82.1888 42° Northeast  Level FlightAware Approximate
Tue 08:27:32 PM 32.1552 -82.1559 45° Northeast  Level FlightAware Approximate
Tue 08:28:32 PM 32.2623 -82.1096 48° Northeast  Level FlightAware Approximate
Tue 08:29:32 PM 32.3694 -82.0632 53° Northeast  Level FlightAware Approximate
Tue 08:30:32 PM 32.4765 -82.0167 59° Northeast  Level FlightAware Approximate
Tue 08:31:32 PM 32.5835 -81.9700 66° East  Level FlightAware Approximate
Tue 08:32:32 PM 32.6905 -81.9233 77° East  Level FlightAware Approximate
Tue 08:33:32 PM 32.7900 -81.8571 89° East  Level FlightAware Approximate
Tue 08:34:32 PM 32.8895 -81.7907 106° East  Level FlightAware Approximate
Tue 08:35:32 PM 32.9889 -81.7242 125° Southeast  Level FlightAware Approximate
Tue 08:36:30 PM 32.7944 -81.3925 19° North 425 489 31,800  Level Jacksonville Center
Tue 08:41:07 PM 33.3175 -81.1725 19° North 425 489 35,400 768 Climbing Jacksonville Center
Tue 08:42:06 PM 33.4297 -81.1256 20° North 425 489 36,100 756 Climbing Jacksonville Center
Tue 08:43:06 PM 33.5436 -81.0758 19° North 425 489 36,900 450 Climbing Jacksonville Center
Tue 08:44:06 PM 33.6558 -81.0286 33° Northeast 425 489 37,000  Climbing Jacksonville Center
Tue 08:45:06 PM 33.7567 -80.9492 34° Northeast 425 489 36,900  Descending Jacksonville Center
Tue 08:46:06 PM 33.8597 -80.8669 34° Northeast 430 495 37,000 50 Climbing Jacksonville Center
Tue 08:47:06 PM 33.9689 -80.7792 33° Northeast 444 511 37,000  Level Jacksonville Center
Tue 08:48:07 PM 34.0761 -80.6964 32° Northeast 456 525 37,000  Level Jacksonville Center
Tue 08:49:38 PM 34.2433 -80.5683 35° Northeast 454 522 37,000  Level Washington Center
Tue 08:50:38 PM 34.3558 -80.4722 33° Northeast 468 539 37,000  Level Washington Center
Tue 08:51:39 PM 34.4700 -80.3831 34° Northeast 481 554 37,000  Level Washington Center
Tue 08:52:39 PM 34.5800 -80.2939 38° Northeast 481 554 37,000  Level Washington Center
Tue 08:53:39 PM 34.6819 -80.1961 46° Northeast 473 544 37,000  Level Washington Center
Tue 08:54:37 PM 34.7697 -80.0847 42° Northeast 447 514 37,000  Level Washington Center
Tue 08:55:37 PM 34.8633 -79.9811 42° Northeast 447 514 37,000  Level Washington Center
Tue 08:56:38 PM 34.9544 -79.8797 47° Northeast 447 514 37,000  Level Washington Center
Tue 08:57:37 PM 35.0419 -79.7650 38° Northeast 447 514 37,000  Level Washington Center
Tue 08:58:37 PM 35.1433 -79.6686 32° Northeast 452 520 37,000  Level Washington Center
Tue 08:59:38 PM 35.2419 -79.5922 37° Northeast 459 528 37,000  Level Washington Center
Tue 09:00:38 PM 35.3453 -79.4956 42° Northeast 459 528 37,000  Level Washington Center
Tue 09:01:39 PM 35.4342 -79.3981 41° Northeast 439 505 37,000  Level Washington Center
Tue 09:02:37 PM 35.5269 -79.3003 38° Northeast 414 476 37,000  Level Washington Center
Tue 09:03:37 PM 35.6022 -79.2272 40° Northeast 384 442 37,000  Level Washington Center
Tue 09:04:38 PM 35.6947 -79.1317 36° Northeast 384 442 37,000  Level Washington Center
Tue 09:05:37 PM 35.7869 -79.0486 32° Northeast 391 450 37,000  Level Washington Center
Tue 09:06:37 PM 35.8872 -78.9711 31° Northeast 404 465 37,000  Level Washington Center
Tue 09:07:37 PM 35.9917 -78.8933 34° Northeast 423 487 37,000  Level Washington Center
Tue 09:08:38 PM 36.0919 -78.8103 35° Northeast 428 493 37,000  Level Washington Center
Tue 09:09:39 PM 36.1925 -78.7217 36° Northeast 441 507 37,000  Level Washington Center
Tue 09:10:39 PM 36.2842 -78.6378 35° Northeast 448 516 37,000  Level Washington Center
Tue 09:11:37 PM 36.3908 -78.5464 38° Northeast 458 527 37,000  Level Washington Center
Tue 09:12:37 PM 36.4914 -78.4494 42° Northeast 458 527 37,000  Level Washington Center
Tue 09:13:38 PM 36.5856 -78.3442 45° Northeast 452 520 37,000  Level Washington Center
Tue 09:14:38 PM 36.6736 -78.2333 50° Northeast 442 509 37,000  Level Washington Center
Tue 09:15:39 PM 36.7511 -78.1167 49° Northeast 442 509 37,000  Level Washington Center
Tue 09:16:39 PM 36.8331 -77.9975 49° Northeast 442 509 37,000  Level Washington Center
Tue 09:17:38 PM 36.9125 -77.8831 50° Northeast 442 509 37,000  Level Washington Center
Tue 09:18:39 PM 36.9897 -77.7683 49° Northeast 442 509 37,000  Level Washington Center
Tue 09:19:37 PM 37.0708 -77.6533 44° Northeast 442 509 37,000  Level Washington Center
Tue 09:20:38 PM 37.1583 -77.5489 42° Northeast 436 502 37,000  Level Washington Center
Tue 09:21:39 PM 37.2494 -77.4444 39° Northeast 431 496 37,000  Level Washington Center
Tue 09:22:37 PM 37.3450 -77.3472 37° Northeast 436 502 37,000  Level Washington Center
Tue 09:23:37 PM 37.4464 -77.2503 30° Northeast 446 513 37,000  Level Washington Center
Tue 09:24:38 PM 37.5558 -77.1714 17° North 451 519 37,000  Level Washington Center
Tue 09:25:39 PM 37.6775 -77.1242 16° North 446 513 37,000 -202 Level Washington Center
Tue 09:26:37 PM 37.7992 -77.0792 17° North 451 519 36,600 -504 Descending Washington Center
Tue 09:27:38 PM 37.9183 -77.0342 16° North 451 519 36,000 -298 Descending Washington Center
Tue 09:28:38 PM 38.0358 -76.9917 16° North 441 507 36,000  Level Washington Center
Tue 09:29:39 PM 38.1531 -76.9489 17° North 436 502 36,000  Level Washington Center
Tue 09:30:39 PM 38.2642 -76.9061 16° North 426 490 36,000  Level Washington Center
Tue 09:31:36 PM 38.3897 -76.8606 16° North 426 490 36,000  Level Washington Center
Tue 09:32:38 PM 38.4964 -76.8225 16° North 426 490 36,000  Level Washington Center
Tue 09:33:39 PM 38.6178 -76.7767 24° Northeast 437 503 36,000 -50 Level Washington Center
Tue 09:34:39 PM 38.7350 -76.7094 39° Northeast 442 509 35,900 -763 Descending Washington Center
Tue 09:35:37 PM 38.8319 -76.6069 43° Northeast 437 503 34,500 -1,424 Descending Washington Center
Tue 09:36:37 PM 38.9225 -76.4989 41° Northeast 445 512 33,100 -1,500 Descending Washington Center
Tue 09:37:37 PM 39.0108 -76.3983 42° Northeast 434 499 31,500 -1,574 Descending Washington Center
Tue 09:38:39 PM 39.0947 -76.3003 42° Northeast 421 484 29,900 -1,574 Descending Washington Center
Tue 09:39:39 PM 39.1806 -76.2019 41° Northeast 409 471 28,300 -1,500 Descending Washington Center
Tue 09:40:39 PM 39.2833 -76.0850 45° Northeast 421 484 26,900 -1,220 Descending Washington Center
Tue 09:41:37 PM 39.3714 -75.9728 41° Northeast 431 496 25,900 -1,250 Descending Washington Center
Tue 09:42:39 PM 39.4675 -75.8631 42° Northeast 443 510 24,400 -1,350 Descending Washington Center
Tue 09:43:37 PM 39.5425 -75.7744 42° Northeast 449 517 23,200 -1,361 Descending Washington Center
Tue 09:44:38 PM 39.6386 -75.6617 44° Northeast 443 510 21,700 -1,475 Descending Washington Center
Tue 09:45:39 PM 39.7239 -75.5564 43° Northeast 426 490 20,200 -1,613 Descending Washington Center
Tue 09:46:37 PM 39.8094 -75.4511 42° Northeast 420 483 18,500 -1,866 Descending Washington Center
Tue 09:47:38 PM 39.8906 -75.3561 44° Northeast 414 476 16,500 -1,983 Descending Washington Center
Tue 09:48:38 PM 39.9672 -75.2611 44° Northeast 388 447 14,500 -2,000 Descending Washington Center

Login

Don't have an account? Register now (free) for customized features, flight alerts, and more!